createdAt,value
2017-05-19T00:02:25.104Z,100861
2017-05-19T00:04:54.321Z,100866
2017-05-19T00:07:22.782Z,100867
2017-05-19T00:09:51.980Z,100875
2017-05-19T00:12:21.205Z,100856
2017-05-19T00:14:49.657Z,100855
2017-05-19T00:17:18.100Z,100857
2017-05-19T00:19:46.615Z,100855
2017-05-19T00:22:15.084Z,100861
2017-05-19T00:24:43.576Z,100865
2017-05-19T00:27:12.072Z,100866
2017-05-19T00:29:41.278Z,100863
2017-05-19T00:32:10.489Z,100860
2017-05-19T00:34:38.989Z,100859
2017-05-19T00:37:07.436Z,100862
2017-05-19T00:39:36.643Z,100863
2017-05-19T00:42:05.864Z,100861
2017-05-19T00:44:34.787Z,100859
2017-05-19T00:47:03.723Z,100860
2017-05-19T00:49:32.675Z,100867
2017-05-19T00:52:01.603Z,100855
2017-05-19T00:54:30.589Z,100854
2017-05-19T00:56:59.544Z,100849
2017-05-19T00:59:28.457Z,100844
2017-05-19T01:01:56.934Z,100838
2017-05-19T01:04:25.460Z,100831
2017-05-19T01:06:54.397Z,100836
2017-05-19T01:09:22.844Z,100835
2017-05-19T01:11:51.321Z,100849
2017-05-19T01:14:19.797Z,100853
2017-05-19T01:16:48.990Z,100848
2017-05-19T01:19:18.213Z,100857
2017-05-19T01:21:46.682Z,100855
2017-05-19T01:24:15.160Z,100858
2017-05-19T01:26:43.650Z,100856
2017-05-19T01:29:12.120Z,100859
2017-05-19T01:31:40.571Z,100869
2017-05-19T01:34:09.059Z,100866
2017-05-19T01:36:37.525Z,100871
2017-05-19T01:39:05.978Z,100872
2017-05-19T01:41:34.456Z,100865
2017-05-19T01:44:02.917Z,100870
2017-05-19T01:46:31.380Z,100864
2017-05-19T01:49:00.609Z,100869
2017-05-19T01:51:29.082Z,100857
2017-05-19T01:53:57.556Z,100858
2017-05-19T01:56:26.037Z,100855
2017-05-19T01:58:54.489Z,100855
2017-05-19T02:01:22.940Z,100844
2017-05-19T02:03:51.432Z,100849
2017-05-19T02:06:19.902Z,100848
2017-05-19T02:08:48.345Z,100839
2017-05-19T02:11:17.306Z,100846
2017-05-19T02:13:46.998Z,100843
2017-05-19T02:16:15.941Z,100834
2017-05-19T02:18:44.924Z,100832
2017-05-19T02:21:14.141Z,100820
2017-05-19T02:23:42.608Z,100824
2017-05-19T02:26:11.846Z,100825
2017-05-19T02:28:40.311Z,100827
2017-05-19T02:31:08.757Z,100824
2017-05-19T02:33:37.993Z,100822
2017-05-19T02:36:06.467Z,100819
2017-05-19T02:38:34.932Z,100813
2017-05-19T02:41:04.169Z,100812
2017-05-19T02:43:32.649Z,100806
2017-05-19T02:46:01.106Z,100801
2017-05-19T02:48:29.604Z,100788
2017-05-19T02:50:58.079Z,100789
2017-05-19T02:53:26.521Z,100789
2017-05-19T02:55:54.996Z,100786
2017-05-19T02:58:23.440Z,100777
2017-05-19T03:00:51.903Z,100778
2017-05-19T03:03:20.398Z,100766
2017-05-19T03:05:48.868Z,100768
2017-05-19T03:08:17.335Z,100771
2017-05-19T03:10:45.832Z,100767
2017-05-19T03:13:14.297Z,100770
2017-05-19T03:15:42.760Z,100766
2017-05-19T03:18:11.997Z,100771
2017-05-19T03:20:40.463Z,100768
2017-05-19T03:23:08.914Z,100768
2017-05-19T03:25:38.216Z,100779
2017-05-19T03:28:07.446Z,100773
2017-05-19T03:30:35.893Z,100769
2017-05-19T03:33:04.375Z,100777
2017-05-19T03:35:32.828Z,100768
2017-05-19T03:38:01.294Z,100764
2017-05-19T03:40:29.781Z,100762
2017-05-19T03:42:58.233Z,100764
2017-05-19T03:45:26.694Z,100762
2017-05-19T03:47:55.911Z,100778
2017-05-19T03:50:24.369Z,100774
2017-05-19T03:52:53.313Z,100784
2017-05-19T03:55:22.281Z,100793
2017-05-19T03:57:51.221Z,100788
2017-05-19T04:00:20.147Z,100786
2017-05-19T04:02:49.121Z,100788
2017-05-19T04:05:18.813Z,100786
2017-05-19T04:07:47.734Z,100782
2017-05-19T04:10:16.709Z,100779
2017-05-19T04:12:46.367Z,100781
2017-05-19T04:15:15.317Z,100783
2017-05-19T04:17:45.009Z,100781
2017-05-19T04:20:13.933Z,100779
2017-05-19T04:22:42.859Z,100782
2017-05-19T04:25:11.809Z,100778
2017-05-19T04:27:41.489Z,100776
2017-05-19T04:30:10.421Z,100784
2017-05-19T04:32:39.378Z,100790
2017-05-19T04:35:08.325Z,100790
2017-05-19T04:37:37.262Z,100797
2017-05-19T04:40:06.231Z,100808
2017-05-19T04:42:35.169Z,100808
2017-05-19T04:45:04.832Z,100804
2017-05-19T04:47:33.786Z,100800
2017-05-19T04:50:02.714Z,100805
2017-05-19T04:52:31.680Z,100811
2017-05-19T04:55:00.641Z,100823
2017-05-19T04:57:29.559Z,100817
2017-05-19T04:59:58.486Z,100823
2017-05-19T05:02:27.437Z,100824
2017-05-19T05:04:57.095Z,100829
2017-05-19T05:07:26.041Z,100824
2017-05-19T05:09:55.755Z,100813
2017-05-19T05:12:24.686Z,100825
2017-05-19T05:14:53.611Z,100828
2017-05-19T05:17:22.563Z,100807
2017-05-19T05:19:51.504Z,100816
2017-05-19T05:22:21.818Z,100803
2017-05-19T05:24:50.794Z,100802
2017-05-19T05:27:19.716Z,100807
2017-05-19T05:29:49.395Z,100804
2017-05-19T05:32:18.338Z,100800
2017-05-19T05:34:47.257Z,100798
2017-05-19T05:37:16.185Z,100803
2017-05-19T05:39:45.166Z,100799
2017-05-19T05:42:14.091Z,100795
2017-05-19T05:44:43.019Z,100796
2017-05-19T05:47:12.716Z,100790
2017-05-19T05:49:42.379Z,100785
2017-05-19T05:52:11.312Z,100785
2017-05-19T05:54:40.281Z,100782
2017-05-19T05:57:09.233Z,100781
2017-05-19T05:59:38.177Z,100783
2017-05-19T06:02:07.145Z,100783
2017-05-19T06:04:36.182Z,100785
2017-05-19T06:07:05.837Z,100790
2017-05-19T06:09:34.809Z,100789
2017-05-19T06:12:03.729Z,100790
2017-05-19T06:14:32.668Z,100779
2017-05-19T06:17:02.360Z,100782
2017-05-19T06:19:59.312Z,100777
2017-05-19T06:22:28.261Z,100772
2017-05-19T06:24:57.217Z,100773
2017-05-19T06:27:26.179Z,100773
2017-05-19T06:29:55.115Z,100767
2017-05-19T06:32:24.047Z,100757
2017-05-19T06:34:53.002Z,100759
2017-05-19T06:37:21.947Z,100758
2017-05-19T06:39:50.872Z,100752
2017-05-19T06:42:19.830Z,100758
2017-05-19T06:44:48.762Z,100761
2017-05-19T06:47:17.687Z,100764
2017-05-19T06:49:46.683Z,100760
2017-05-19T06:52:15.616Z,100772
2017-05-19T06:54:44.560Z,100762
2017-05-19T06:57:13.529Z,100766
2017-05-19T06:59:42.481Z,100762
2017-05-19T07:02:11.421Z,100764
2017-05-19T07:04:40.379Z,100757
2017-05-19T07:07:09.324Z,100755
2017-05-19T07:09:38.248Z,100754
2017-05-19T07:12:07.238Z,100770
2017-05-19T07:14:36.184Z,100768
2017-05-19T07:17:05.125Z,100754
2017-05-19T07:19:34.100Z,100736
2017-05-19T07:22:03.046Z,100739
2017-05-19T07:24:31.997Z,100748
2017-05-19T07:27:00.974Z,100746
2017-05-19T07:29:29.900Z,100755
2017-05-19T07:31:58.848Z,100746
2017-05-19T07:34:27.804Z,100750
2017-05-19T07:36:56.791Z,100739
2017-05-19T07:39:25.725Z,100743
2017-05-19T07:41:54.700Z,100730
2017-05-19T07:44:23.640Z,100740
2017-05-19T07:46:52.581Z,100726
2017-05-19T07:49:21.551Z,100735
2017-05-19T07:51:50.493Z,100726
2017-05-19T07:54:19.414Z,100733
2017-05-19T07:56:48.391Z,100729
2017-05-19T07:59:17.345Z,100719
2017-05-19T08:01:46.293Z,100714
2017-05-19T08:04:15.273Z,100715
2017-05-19T08:06:44.222Z,100715
2017-05-19T08:09:13.172Z,100714
2017-05-19T08:11:42.133Z,100718
2017-05-19T08:14:11.070Z,100714
2017-05-19T08:16:39.998Z,100710
2017-05-19T08:19:08.976Z,100716
2017-05-19T08:21:37.923Z,100713
2017-05-19T08:24:06.876Z,100718
2017-05-19T08:26:35.829Z,100721
2017-05-19T08:29:04.762Z,100716
2017-05-19T08:31:33.704Z,100727
2017-05-19T08:34:02.697Z,100731
2017-05-19T08:36:31.627Z,100734
2017-05-19T08:39:00.573Z,100728
2017-05-19T08:41:29.545Z,100739
2017-05-19T08:43:58.496Z,100738
2017-05-19T08:46:27.428Z,100745
2017-05-19T08:48:56.409Z,100730
2017-05-19T08:51:25.342Z,100735
2017-05-19T08:53:54.275Z,100732
2017-05-19T08:56:22.786Z,100725
2017-05-19T08:58:51.732Z,100717
2017-05-19T09:01:20.205Z,100717
2017-05-19T09:03:48.690Z,100721
2017-05-19T09:06:17.146Z,100717
2017-05-19T09:08:45.598Z,100713
2017-05-19T09:11:14.096Z,100729
2017-05-19T09:13:43.020Z,100726
2017-05-19T09:16:11.498Z,100725
2017-05-19T09:18:40.454Z,100735
2017-05-19T09:21:09.373Z,100746
2017-05-19T09:23:38.299Z,100752
2017-05-19T09:26:07.277Z,100751
2017-05-19T09:28:36.227Z,100752
2017-05-19T09:31:05.174Z,100771
2017-05-19T09:33:34.149Z,100766
2017-05-19T09:36:03.069Z,100766
2017-05-19T09:38:32.004Z,100762
2017-05-19T09:41:00.977Z,100763
2017-05-19T09:43:29.920Z,100773
2017-05-19T09:45:58.866Z,100766
2017-05-19T09:48:27.840Z,100754
2017-05-19T09:50:56.781Z,100751
2017-05-19T09:53:25.705Z,100742
2017-05-19T09:55:54.658Z,100753
2017-05-19T09:58:23.602Z,100765
2017-05-19T10:00:52.541Z,100757
2017-05-19T10:03:21.514Z,100762
2017-05-19T10:05:50.472Z,100766
2017-05-19T10:08:19.425Z,100766
2017-05-19T10:10:48.403Z,100772
2017-05-19T10:13:17.331Z,100776
2017-05-19T10:15:46.271Z,100778
2017-05-19T10:18:15.232Z,100783
2017-05-19T10:20:44.181Z,100779
2017-05-19T10:23:13.125Z,100775
2017-05-19T10:25:42.098Z,100776
2017-05-19T10:28:11.046Z,100775
2017-05-19T10:30:39.994Z,100769
2017-05-19T10:33:08.967Z,100765
2017-05-19T10:35:37.928Z,100771
2017-05-19T10:38:06.874Z,100768
2017-05-19T10:40:35.843Z,100761
2017-05-19T10:43:04.777Z,100760
2017-05-19T10:45:33.729Z,100766
2017-05-19T10:48:02.690Z,100769
2017-05-19T10:50:31.617Z,100758
2017-05-19T10:53:00.568Z,100761
2017-05-19T10:55:29.944Z,100755
2017-05-19T10:57:58.893Z,100760
2017-05-19T11:00:27.852Z,100772
2017-05-19T11:02:56.835Z,100768
2017-05-19T11:05:25.784Z,100766
2017-05-19T11:07:54.737Z,100772
2017-05-19T11:10:23.714Z,100770
2017-05-19T11:12:52.649Z,100775
2017-05-19T11:15:21.593Z,100770
2017-05-19T11:17:50.572Z,100761
2017-05-19T11:20:19.510Z,100765
2017-05-19T11:22:48.462Z,100763
2017-05-19T11:25:17.421Z,100767
2017-05-19T11:27:46.358Z,100760
2017-05-19T11:30:15.308Z,100749
2017-05-19T11:32:44.286Z,100746
2017-05-19T11:35:13.237Z,100745
2017-05-19T11:37:42.170Z,100750
2017-05-19T11:40:11.132Z,100757
2017-05-19T11:42:40.063Z,100761
2017-05-19T11:45:08.996Z,100757
2017-05-19T11:47:37.997Z,100757
2017-05-19T11:50:06.948Z,100759
2017-05-19T11:52:35.897Z,100757
2017-05-19T11:55:04.878Z,100748
2017-05-19T11:57:33.822Z,100750
2017-05-19T12:00:02.746Z,100749
2017-05-19T12:02:31.706Z,100745
2017-05-19T12:05:00.632Z,100741
2017-05-19T12:07:29.585Z,100739
2017-05-19T12:10:05.271Z,100741
2017-05-19T12:12:34.245Z,100748
2017-05-19T12:15:02.699Z,100746
2017-05-19T12:17:31.233Z,100741
2017-05-19T12:19:59.710Z,100741
2017-05-19T12:22:28.182Z,100745
2017-05-19T12:24:56.692Z,100737
2017-05-19T12:27:25.172Z,100728
2017-05-19T12:29:53.625Z,100724
2017-05-19T12:32:22.101Z,100733
2017-05-19T12:34:50.579Z,100740
2017-05-19T12:37:19.026Z,100742
2017-05-19T12:39:47.524Z,100746
2017-05-19T12:42:16.003Z,100756
2017-05-19T12:44:44.460Z,100757
2017-05-19T12:47:12.948Z,100745
2017-05-19T12:49:41.427Z,100755
2017-05-19T12:52:09.898Z,100760
2017-05-19T12:54:38.377Z,100767
2017-05-19T12:57:06.838Z,100772
2017-05-19T12:59:35.310Z,100779
2017-05-19T13:02:04.281Z,100783
2017-05-19T13:04:32.752Z,100789
2017-05-19T13:07:01.209Z,100781
2017-05-19T13:09:29.699Z,100763
2017-05-19T13:11:58.154Z,100769
2017-05-19T13:14:26.629Z,100778
2017-05-19T13:16:55.126Z,100796
2017-05-19T13:19:23.580Z,100810
2017-05-19T13:21:52.035Z,100806
2017-05-19T13:24:20.532Z,100799
2017-05-19T13:26:48.985Z,100806
2017-05-19T13:29:17.457Z,100803
2017-05-19T13:31:45.964Z,100793
2017-05-19T13:34:14.909Z,100787
2017-05-19T13:36:43.375Z,100764
2017-05-19T13:39:11.881Z,100757
2017-05-19T13:41:40.337Z,100762
2017-05-19T13:44:08.811Z,100767
2017-05-19T13:46:37.316Z,100776
2017-05-19T13:49:05.783Z,100772
2017-05-19T13:51:34.255Z,100778
2017-05-19T13:54:02.766Z,100781
2017-05-19T13:56:31.219Z,100770
2017-05-19T13:59:00.169Z,100769
2017-05-19T14:01:29.149Z,100772
2017-05-19T14:03:58.093Z,100769
2017-05-19T14:06:27.015Z,100770
2017-05-19T14:08:55.973Z,100764
2017-05-19T14:11:24.433Z,100768
2017-05-19T14:13:52.904Z,100765
2017-05-19T14:16:21.410Z,100763
2017-05-19T14:18:49.865Z,100765
2017-05-19T14:21:18.388Z,100761
2017-05-19T14:23:46.893Z,100759
2017-05-19T14:26:15.846Z,100765
2017-05-19T14:28:44.765Z,100766
2017-05-19T14:31:13.738Z,100766
2017-05-19T14:33:42.221Z,100770
2017-05-19T14:36:10.687Z,100770
2017-05-19T14:38:39.178Z,100767
2017-05-19T14:41:07.633Z,100767
2017-05-19T14:43:36.114Z,100761
2017-05-19T14:46:04.597Z,100764
2017-05-19T14:48:33.129Z,100765
2017-05-19T14:51:01.590Z,100758
2017-05-19T14:53:30.092Z,100763
2017-05-19T14:55:58.545Z,100758
2017-05-19T14:58:26.994Z,100761
2017-05-19T15:00:55.485Z,100754
2017-05-19T15:03:23.943Z,100749
2017-05-19T15:05:52.425Z,100751
2017-05-19T15:08:20.927Z,100747
2017-05-19T15:10:49.397Z,100750
2017-05-19T15:13:17.850Z,100740
2017-05-19T15:15:46.346Z,100754
2017-05-19T15:18:14.825Z,100750
2017-05-19T15:20:43.746Z,100748
2017-05-19T15:23:12.730Z,100748
2017-05-19T15:25:41.677Z,100736
2017-05-19T15:28:10.619Z,100742
2017-05-19T15:30:39.574Z,100741
2017-05-19T15:33:08.495Z,100737
2017-05-19T15:35:37.437Z,100736
2017-05-19T15:38:06.410Z,100730
2017-05-19T15:40:34.867Z,100725
2017-05-19T15:43:03.794Z,100723
2017-05-19T15:45:32.278Z,100728
2017-05-19T15:48:00.750Z,100717
2017-05-19T15:50:29.224Z,100721
2017-05-19T15:52:57.711Z,100708
2017-05-19T15:55:26.188Z,100709
2017-05-19T15:57:54.641Z,100710
2017-05-19T16:00:23.149Z,100716
2017-05-19T16:02:51.629Z,100716
2017-05-19T16:05:20.088Z,100722
2017-05-19T16:07:48.570Z,100724
2017-05-19T16:10:17.039Z,100723
2017-05-19T16:12:45.497Z,100730
2017-05-19T16:15:13.994Z,100730
2017-05-19T16:17:42.472Z,100726
2017-05-19T16:20:11.226Z,100725
2017-05-19T16:22:40.237Z,100720
2017-05-19T16:25:09.162Z,100724
2017-05-19T16:27:38.091Z,100725
2017-05-19T16:30:07.077Z,100721
2017-05-19T16:32:36.009Z,100725
2017-05-19T16:35:04.934Z,100728
2017-05-19T16:37:33.417Z,100734
2017-05-19T16:40:01.892Z,100746
2017-05-19T16:42:30.364Z,100747
2017-05-19T16:44:59.316Z,100748
2017-05-19T16:47:28.265Z,100733
2017-05-19T16:49:57.214Z,100722
2017-05-19T16:52:26.194Z,100733
2017-05-19T16:54:55.141Z,100736
2017-05-19T16:57:23.621Z,100742
2017-05-19T16:59:52.119Z,100751
2017-05-19T17:02:21.078Z,100749
2017-05-19T17:04:50.031Z,100760
2017-05-19T17:07:18.982Z,100754
2017-05-19T17:09:47.461Z,100775
2017-05-19T17:12:15.936Z,100789
2017-05-19T17:14:44.893Z,100796
2017-05-19T17:17:13.349Z,100796
2017-05-19T17:19:41.867Z,100803
2017-05-19T17:22:10.585Z,100797
2017-05-19T17:24:39.510Z,100800
2017-05-19T17:27:08.456Z,100822
2017-05-19T17:29:36.942Z,100812
2017-05-19T17:32:05.418Z,100822
2017-05-19T17:34:33.869Z,100821
2017-05-19T17:37:02.348Z,100817
2017-05-19T17:39:30.808Z,100818
2017-05-19T17:41:59.733Z,100807
2017-05-19T17:44:28.706Z,100803
2017-05-19T17:46:57.629Z,100800
2017-05-19T17:49:26.573Z,100798
2017-05-19T17:51:55.933Z,100782
2017-05-19T17:54:24.886Z,100794
2017-05-19T17:56:53.830Z,100783
2017-05-19T17:59:22.809Z,100797
2017-05-19T18:01:51.737Z,100792
2017-05-19T18:04:20.674Z,100783
2017-05-19T18:06:49.175Z,100793
2017-05-19T18:09:17.684Z,100816
2017-05-19T18:11:46.236Z,100801
2017-05-19T18:14:14.714Z,100793
2017-05-19T18:16:43.172Z,100810
2017-05-19T18:19:11.644Z,100839
2017-05-19T18:21:40.152Z,100826
2017-05-19T18:24:08.605Z,100827
2017-05-19T18:26:37.060Z,100852
2017-05-19T18:29:05.573Z,100865
2017-05-19T18:31:34.046Z,100847
2017-05-19T18:34:02.520Z,100824
2017-05-19T18:36:31.048Z,100848
2017-05-19T18:38:59.519Z,100857
2017-05-19T18:41:27.992Z,100853
2017-05-19T18:43:56.485Z,100839
2017-05-19T18:46:24.945Z,100850
2017-05-19T18:48:53.429Z,100894
2017-05-19T18:51:21.922Z,100923
2017-05-19T18:53:50.395Z,100930
2017-05-19T18:56:18.867Z,100878
2017-05-19T18:58:47.351Z,100863
2017-05-19T19:01:15.807Z,100898
2017-05-19T19:03:44.286Z,100918
2017-05-19T19:06:12.778Z,100938
2017-05-19T19:08:41.252Z,100937
2017-05-19T19:11:09.721Z,100925
2017-05-19T19:13:38.690Z,100915
2017-05-19T19:16:07.614Z,100924
2017-05-19T19:18:36.555Z,100946
2017-05-19T19:21:05.503Z,100945
2017-05-19T19:23:34.424Z,100962
2017-05-19T19:26:03.371Z,100996
2017-05-19T19:28:32.326Z,101027
2017-05-19T19:31:01.246Z,101059
2017-05-19T19:33:30.171Z,101062
2017-05-19T19:35:59.135Z,101072
2017-05-19T19:38:28.054Z,101062
2017-05-19T19:40:56.987Z,101048
2017-05-19T19:43:25.470Z,101036
2017-05-19T19:45:53.945Z,101052
2017-05-19T19:48:22.405Z,101057
2017-05-19T19:50:50.923Z,101055
2017-05-19T19:53:19.428Z,101045
2017-05-19T19:55:48.368Z,101044
2017-05-19T19:58:17.350Z,101040
2017-05-19T20:00:45.818Z,101038
2017-05-19T20:03:14.311Z,101033
2017-05-19T20:05:42.817Z,101032
2017-05-19T20:08:11.275Z,101017
2017-05-19T20:10:39.756Z,100980
2017-05-19T20:13:08.293Z,100951
2017-05-19T20:15:36.772Z,100966
2017-05-19T20:18:05.225Z,100965
2017-05-19T20:20:33.765Z,100983
2017-05-19T20:23:02.244Z,100974
2017-05-19T20:25:30.723Z,100974
2017-05-19T20:27:59.241Z,100999
2017-05-19T20:30:27.714Z,101025
2017-05-19T20:32:56.643Z,101041
2017-05-19T20:35:25.620Z,101066
2017-05-19T20:37:54.565Z,101066
2017-05-19T20:40:23.508Z,101067
2017-05-19T20:42:52.471Z,101074
2017-05-19T20:45:21.417Z,101086
2017-05-19T20:47:50.362Z,101104
2017-05-19T20:50:19.317Z,101102
2017-05-19T20:52:48.255Z,101080
2017-05-19T20:55:17.206Z,101084
2017-05-19T20:57:46.188Z,101096
2017-05-19T21:00:15.133Z,101113
2017-05-19T21:02:44.082Z,101106
2017-05-19T21:05:13.062Z,101082
2017-05-19T21:07:42.009Z,101063
2017-05-19T21:10:10.952Z,101045
2017-05-19T21:12:39.909Z,101022
2017-05-19T21:15:08.856Z,101023
2017-05-19T21:17:37.782Z,101052
2017-05-19T21:20:06.753Z,101091
2017-05-19T21:22:35.694Z,101117
2017-05-19T21:25:04.646Z,101119
2017-05-19T21:27:33.609Z,101104
2017-05-19T21:30:02.537Z,101081
2017-05-19T21:32:31.467Z,101055
2017-05-19T21:35:00.423Z,100979
2017-05-19T21:37:29.369Z,101016
2017-05-19T21:39:58.304Z,101058
2017-05-19T21:42:27.280Z,101029
2017-05-19T21:44:56.216Z,101046
2017-05-19T21:47:25.151Z,101051
2017-05-19T21:49:54.112Z,101052
2017-05-19T21:52:23.043Z,101050
2017-05-19T21:54:51.989Z,101045
2017-05-19T21:57:20.968Z,101024
2017-05-19T21:59:49.893Z,101024
2017-05-19T22:02:18.838Z,101008
2017-05-19T22:04:47.799Z,101010
2017-05-19T22:07:16.751Z,101023
2017-05-19T22:09:45.693Z,101044
2017-05-19T22:12:14.655Z,101047
2017-05-19T22:14:43.608Z,101045
2017-05-19T22:17:12.545Z,101047
2017-05-19T22:19:41.514Z,101053
2017-05-19T22:22:10.462Z,101035
2017-05-19T22:24:39.389Z,101035
2017-05-19T22:27:08.367Z,101040
2017-05-19T22:29:37.294Z,101040
2017-05-19T22:32:06.223Z,101056
2017-05-19T22:34:35.201Z,101041
2017-05-19T22:37:04.156Z,101042
2017-05-19T22:39:33.087Z,101034
2017-05-19T22:42:02.048Z,101040
2017-05-19T22:44:30.998Z,101037
2017-05-19T22:46:59.950Z,101017
2017-05-19T22:49:28.902Z,101011
2017-05-19T22:51:57.845Z,101003
2017-05-19T22:54:26.800Z,101004
2017-05-19T22:56:55.769Z,100999
2017-05-19T22:59:24.695Z,101018
2017-05-19T23:01:52.868Z,101031
2017-05-19T23:04:21.819Z,101033
2017-05-19T23:06:50.750Z,101026
2017-05-19T23:09:19.673Z,101039
2017-05-19T23:11:48.636Z,101034
2017-05-19T23:14:17.564Z,101051
2017-05-19T23:16:46.493Z,101058
2017-05-19T23:19:15.440Z,101056
2017-05-19T23:21:44.368Z,101059
2017-05-19T23:24:13.297Z,101075
2017-05-19T23:26:42.252Z,101096
2017-05-19T23:29:11.179Z,101110
2017-05-19T23:31:40.115Z,101114
2017-05-19T23:34:09.096Z,101104
2017-05-19T23:36:38.045Z,101087
2017-05-19T23:39:06.970Z,101080
2017-05-19T23:41:35.954Z,101062
2017-05-19T23:44:04.898Z,101059
2017-05-19T23:46:33.840Z,101074
2017-05-19T23:49:02.826Z,101076
2017-05-19T23:51:31.755Z,101086
2017-05-19T23:54:00.697Z,101080
2017-05-19T23:56:29.669Z,101087
2017-05-19T23:58:58.618Z,101092
